createdAt,value
2022-12-03T00:02:24.691Z,-1.69
2022-12-03T00:04:51.829Z,-1.76
2022-12-03T00:07:18.696Z,-1.75
2022-12-03T00:09:45.403Z,-1.65
2022-12-03T00:12:12.136Z,-1.47
2022-12-03T00:14:53.059Z,-1.75
2022-12-03T00:17:23.276Z,-1.73
2022-12-03T00:19:52.823Z,-1.77
2022-12-03T00:22:19.504Z,-1.92
2022-12-03T00:24:46.232Z,-1.84
2022-12-03T00:27:13.032Z,-1.72
2022-12-03T00:29:39.720Z,-1.70
2022-12-03T00:32:06.506Z,-1.68
2022-12-03T00:34:33.337Z,-1.83
2022-12-03T00:37:00.062Z,-1.85
2022-12-03T00:39:27.090Z,-1.74
2022-12-03T00:41:53.960Z,-1.86
2022-12-03T00:44:20.840Z,-1.83
2022-12-03T00:47:10.065Z,-1.72
2022-12-03T00:49:57.732Z,-1.86
2022-12-03T00:52:24.631Z,-1.82
2022-12-03T00:54:51.756Z,-1.82
2022-12-03T00:57:18.996Z,-1.78
2022-12-03T01:00:10.276Z,-1.50
2022-12-03T01:02:37.378Z,-1.52
2022-12-03T01:05:05.058Z,-1.52
2022-12-03T01:07:32.348Z,-1.59
2022-12-03T01:10:00.426Z,-1.62
2022-12-03T01:12:37.077Z,-1.80
2022-12-03T01:15:05.064Z,-1.75
2022-12-03T01:17:31.927Z,-1.62
2022-12-03T01:19:59.392Z,-1.56
2022-12-03T01:22:26.227Z,-1.49
2022-12-03T01:24:53.502Z,-1.56
2022-12-03T01:27:27.963Z,-1.61
2022-12-03T01:29:54.721Z,-1.65
2022-12-03T01:32:21.691Z,-1.52
2022-12-03T01:34:55.755Z,-1.70
2022-12-03T01:37:25.216Z,-1.64
2022-12-03T01:39:55.348Z,-1.47
2022-12-03T01:42:25.675Z,-1.66
2022-12-03T01:44:55.571Z,-1.58
2022-12-03T01:47:26.933Z,-1.53
2022-12-03T01:50:03.659Z,-1.55
2022-12-03T01:52:37.661Z,-1.50
2022-12-03T01:55:10.847Z,-1.42
2022-12-03T01:57:48.407Z,-1.43
2022-12-03T02:00:27.201Z,-1.32
2022-12-03T02:02:59.962Z,-1.37
2022-12-03T02:05:39.501Z,-1.43
2022-12-03T02:08:35.231Z,-1.83
2022-12-03T02:11:22.987Z,-1.74
2022-12-03T02:13:53.101Z,-1.93
2022-12-03T02:16:33.578Z,-1.93
2022-12-03T02:19:36.346Z,-1.94
2022-12-03T02:22:47.156Z,-1.74
2022-12-03T02:25:21.696Z,-1.57
2022-12-03T02:27:58.211Z,-1.56
2022-12-03T02:30:26.769Z,-1.77
2022-12-03T02:32:54.480Z,-1.71
2022-12-03T02:35:27.988Z,-1.99
2022-12-03T02:38:11.069Z,-1.83
2022-12-03T02:40:38.590Z,-1.99
2022-12-03T02:43:08.079Z,-1.98
2022-12-03T02:45:47.957Z,-1.73
2022-12-03T02:48:20.340Z,-1.64
2022-12-03T02:50:55.448Z,-1.78
2022-12-03T02:53:31.623Z,-1.80
2022-12-03T02:55:59.780Z,-1.70
2022-12-03T02:58:30.283Z,-1.59
2022-12-03T03:00:58.020Z,-1.61
2022-12-03T03:03:25.625Z,-1.56
2022-12-03T03:05:52.802Z,-1.53
2022-12-03T03:08:23.120Z,-1.53
2022-12-03T03:10:50.467Z,-1.61
2022-12-03T03:13:22.789Z,-1.68
2022-12-03T03:15:50.025Z,-1.56
2022-12-03T03:18:17.399Z,-1.52
2022-12-03T03:20:45.697Z,-1.52
2022-12-03T03:23:12.474Z,-1.56
2022-12-03T03:26:10.133Z,-1.62
2022-12-03T03:28:47.487Z,-1.60
2022-12-03T03:31:16.336Z,-1.54
2022-12-03T03:33:50.253Z,-1.79
2022-12-03T03:36:18.927Z,-1.77
2022-12-03T03:38:48.634Z,-1.60
2022-12-03T03:41:16.406Z,-1.64
2022-12-03T03:43:44.769Z,-1.59
2022-12-03T03:46:16.420Z,-1.59
2022-12-03T03:48:46.710Z,-1.51
2022-12-03T03:51:22.336Z,-1.54
2022-12-03T03:53:49.953Z,-1.59
2022-12-03T03:56:18.055Z,-1.51
2022-12-03T03:58:44.858Z,-1.48
2022-12-03T04:01:13.069Z,-1.66
2022-12-03T04:03:44.028Z,-1.52
2022-12-03T04:06:11.568Z,-1.57
2022-12-03T04:08:41.701Z,-1.59
2022-12-03T04:11:31.034Z,-1.52
2022-12-03T04:13:57.900Z,-1.45
2022-12-03T04:16:27.250Z,-1.46
2022-12-03T04:19:13.365Z,-1.49
2022-12-03T04:22:11.435Z,-1.50
2022-12-03T04:25:10.514Z,-1.48
2022-12-03T04:27:58.542Z,-1.44
2022-12-03T04:30:29.779Z,-1.52
2022-12-03T04:33:15.945Z,-1.54
2022-12-03T04:35:50.582Z,-1.52
2022-12-03T04:38:18.015Z,-1.46
2022-12-03T04:41:03.561Z,-1.62
2022-12-03T04:43:34.974Z,-1.61
2022-12-03T04:46:02.168Z,-1.88
2022-12-03T04:48:29.998Z,-1.79
2022-12-03T04:50:57.042Z,-1.79
2022-12-03T04:53:23.939Z,-1.71
2022-12-03T04:55:53.358Z,-1.74
2022-12-03T04:58:22.367Z,-1.79
2022-12-03T05:00:50.781Z,-1.73
2022-12-03T05:03:25.047Z,-1.71
2022-12-03T05:05:54.204Z,-1.62
2022-12-03T05:08:21.184Z,-1.60
2022-12-03T05:10:50.428Z,-1.70
2022-12-03T05:13:19.567Z,-1.66
2022-12-03T05:15:46.286Z,-1.61
2022-12-03T05:24:49.321Z,-1.56
2022-12-03T05:27:23.467Z,-1.75
2022-12-03T05:29:59.431Z,-1.63
2022-12-03T05:32:33.860Z,-1.56
2022-12-03T05:35:00.913Z,-1.51
2022-12-03T05:37:27.968Z,-1.79
2022-12-03T05:39:58.156Z,-1.96
2022-12-03T05:43:05.904Z,-1.66
2022-12-03T05:46:07.486Z,-1.56
2022-12-03T05:48:43.664Z,-1.62
2022-12-03T05:51:46.950Z,-1.60
2022-12-03T05:54:14.054Z,-1.60
2022-12-03T05:56:59.924Z,-1.58
2022-12-03T06:03:14.802Z,-1.79
2022-12-03T06:05:47.553Z,-1.94
2022-12-03T06:08:15.000Z,-2.06
2022-12-03T06:10:41.884Z,-1.78
2022-12-03T06:13:14.703Z,-1.72
2022-12-03T06:15:44.003Z,-1.69
2022-12-03T06:18:21.084Z,-1.60
2022-12-03T06:20:47.905Z,-1.70
2022-12-03T06:23:30.133Z,-1.57
2022-12-03T06:25:57.416Z,-1.56
2022-12-03T06:28:24.571Z,-1.68
2022-12-03T06:31:01.472Z,-1.87
2022-12-03T06:36:53.415Z,-1.76
2022-12-03T06:39:28.066Z,-1.76
2022-12-03T06:41:59.087Z,-1.63
2022-12-03T06:44:34.148Z,-1.73
2022-12-03T06:47:07.387Z,-1.73
2022-12-03T06:49:34.919Z,-1.70
2022-12-03T06:58:42.430Z,-1.70
2022-12-03T07:04:48.088Z,-1.62
2022-12-03T07:08:09.466Z,-1.66
2022-12-03T07:14:11.621Z,-1.63
2022-12-03T07:21:32.092Z,-1.60
2022-12-03T07:24:36.134Z,-1.57
2022-12-03T07:27:08.955Z,-1.60
2022-12-03T07:29:35.606Z,-1.53
2022-12-03T07:32:02.305Z,-1.32
2022-12-03T07:34:34.720Z,-1.18
2022-12-03T07:37:04.441Z,-1.38
2022-12-03T07:40:01.471Z,-1.44
2022-12-03T07:44:17.300Z,-1.56
2022-12-03T07:46:32.090Z,-1.45
2022-12-03T07:49:31.590Z,-1.42
2022-12-03T07:52:28.290Z,-1.52
2022-12-03T07:55:55.039Z,-1.58
2022-12-03T07:58:39.039Z,-1.58
2022-12-03T08:01:17.747Z,-1.61
2022-12-03T08:03:47.764Z,-1.67
2022-12-03T08:06:15.796Z,-1.64
2022-12-03T08:08:45.971Z,-1.65
2022-12-03T08:11:15.046Z,-1.59
2022-12-03T08:13:41.824Z,-1.55
2022-12-03T08:16:21.494Z,-1.43
2022-12-03T08:18:49.858Z,-1.43
2022-12-03T08:21:22.220Z,-1.35
2022-12-03T08:23:54.285Z,-1.37
2022-12-03T08:38:41.297Z,-1.42
2022-12-03T08:48:47.040Z,-1.62
2022-12-03T08:52:21.514Z,-1.54
2022-12-03T08:58:46.454Z,-1.56
2022-12-03T09:01:35.342Z,-1.48
2022-12-03T09:04:39.164Z,-1.53
2022-12-03T09:07:06.034Z,-1.49
2022-12-03T09:09:39.102Z,-1.47
2022-12-03T09:12:11.587Z,-1.73
2022-12-03T09:14:41.134Z,-1.65
2022-12-03T09:17:17.253Z,-1.56
2022-12-03T09:39:17.228Z,-1.52
2022-12-03T09:47:18.628Z,-1.39
2022-12-03T09:49:33.720Z,-1.44
2022-12-03T09:50:06.772Z,-1.31
2022-12-03T09:52:34.608Z,-1.22
2022-12-03T09:55:08.187Z,-1.17
2022-12-03T09:57:43.054Z,-1.25
2022-12-03T10:00:24.240Z,-1.38
2022-12-03T10:02:53.850Z,-1.23
2022-12-03T10:05:22.706Z,-1.16
2022-12-03T10:07:51.001Z,-1.13
2022-12-03T10:10:22.949Z,-1.14
2022-12-03T10:13:01.528Z,-1.13
2022-12-03T10:15:28.319Z,-1.11
2022-12-03T10:18:22.481Z,-1.06
2022-12-03T10:20:49.743Z,-1.21
2022-12-03T10:23:26.412Z,-1.17
2022-12-03T10:26:16.179Z,-1.15
2022-12-03T10:28:51.454Z,-1.04
2022-12-03T10:31:18.211Z,-1.05
2022-12-03T10:34:02.438Z,-1.02
2022-12-03T10:36:29.161Z,-1.09
2022-12-03T10:39:09.817Z,-1.05
2022-12-03T10:41:41.571Z,-1.08
2022-12-03T10:44:34.855Z,-0.99
2022-12-03T10:47:07.919Z,-0.96
2022-12-03T10:49:36.413Z,-0.91
2022-12-03T10:52:18.820Z,-0.95
2022-12-03T10:55:12.969Z,-1.01
2022-12-03T10:57:48.276Z,-1.03
2022-12-03T11:00:30.302Z,-1.18
2022-12-03T11:03:26.716Z,-1.10
2022-12-03T11:06:00.041Z,-1.13
2022-12-03T11:08:31.945Z,-1.39
2022-12-03T11:11:06.763Z,-1.38
2022-12-03T11:13:33.458Z,-1.40
2022-12-03T11:16:08.608Z,-1.27
2022-12-03T11:18:38.479Z,-1.17
2022-12-03T11:21:14.656Z,-1.25
2022-12-03T11:23:44.506Z,-1.14
2022-12-03T11:26:37.308Z,-1.23
2022-12-03T11:29:05.591Z,-1.51
2022-12-03T11:31:44.259Z,-1.52
2022-12-03T11:34:20.621Z,-1.39
2022-12-03T11:37:11.835Z,-1.37
2022-12-03T11:39:44.618Z,-1.31
2022-12-03T11:42:26.705Z,-1.28
2022-12-03T11:45:28.495Z,-1.09
2022-12-03T11:47:58.308Z,-1.03
2022-12-03T11:50:52.169Z,-1.13
2022-12-03T11:53:23.109Z,-1.12
2022-12-03T11:56:06.459Z,-1.29
2022-12-03T12:02:19.772Z,-1.25
2022-12-03T12:04:58.295Z,-1.52
2022-12-03T12:07:37.469Z,-1.42
2022-12-03T12:10:56.691Z,-1.24
2022-12-03T12:17:24.508Z,-1.22
2022-12-03T12:20:13.763Z,-1.29
2022-12-03T12:22:44.398Z,-1.26
2022-12-03T12:25:33.003Z,-1.21
2022-12-03T12:28:00.978Z,-1.17
2022-12-03T12:30:27.834Z,-1.18
2022-12-03T12:33:17.465Z,-1.27
2022-12-03T12:35:44.288Z,-1.25
2022-12-03T12:38:15.584Z,-1.34
2022-12-03T12:43:35.089Z,-1.43
2022-12-03T12:46:45.552Z,-1.39
2022-12-03T12:49:04.636Z,-1.40
2022-12-03T12:51:41.425Z,-1.30
2022-12-03T12:54:12.853Z,-1.26
2022-12-03T12:56:47.879Z,-1.28
2022-12-03T13:09:55.974Z,-1.39
2022-12-03T13:12:29.557Z,-1.32
2022-12-03T13:14:58.100Z,-1.18
2022-12-03T13:17:26.363Z,-1.20
2022-12-03T13:29:15.542Z,-1.23
2022-12-03T13:32:21.107Z,-1.42
2022-12-03T13:34:58.567Z,-1.42
2022-12-03T13:38:09.130Z,-1.35
2022-12-03T13:42:17.515Z,-1.41
2022-12-03T13:45:00.188Z,-1.35
2022-12-03T13:51:27.153Z,-1.40
2022-12-03T13:53:54.543Z,-1.38
2022-12-03T14:00:42.933Z,-1.36
2022-12-03T14:04:17.628Z,-1.40
2022-12-03T14:07:43.242Z,-1.43
2022-12-03T14:10:13.014Z,-1.58
2022-12-03T14:12:40.185Z,-1.50
2022-12-03T14:15:10.844Z,-1.44
2022-12-03T14:17:40.073Z,-1.46
2022-12-03T14:20:31.478Z,-1.42
2022-12-03T14:23:05.050Z,-1.40
2022-12-03T14:29:10.745Z,-1.39
2022-12-03T14:31:37.567Z,-1.36
2022-12-03T14:34:04.535Z,-1.42
2022-12-03T14:36:34.403Z,-1.42
2022-12-03T14:39:23.926Z,-1.52
2022-12-03T14:42:27.295Z,-1.44
2022-12-03T14:44:57.394Z,-1.46
2022-12-03T14:47:24.201Z,-1.28
2022-12-03T14:52:59.454Z,-1.26
2022-12-03T14:55:26.170Z,-1.30
2022-12-03T14:57:52.986Z,-1.33
2022-12-03T15:00:22.397Z,-1.28
2022-12-03T15:02:49.361Z,-1.29
2022-12-03T15:05:16.110Z,-1.30
2022-12-03T15:07:42.959Z,-1.31
2022-12-03T15:10:10.029Z,-1.32
2022-12-03T15:12:36.739Z,-1.46
2022-12-03T15:15:17.774Z,-1.35
2022-12-03T15:17:56.719Z,-1.30
2022-12-03T15:20:25.742Z,-1.25
2022-12-03T15:22:55.482Z,-1.27
2022-12-03T15:25:25.866Z,-1.36
2022-12-03T15:27:52.891Z,-1.29
2022-12-03T15:30:20.978Z,-1.41
2022-12-03T15:32:54.236Z,-1.39
2022-12-03T15:35:26.419Z,-1.33
2022-12-03T15:37:53.194Z,-1.44
2022-12-03T15:40:25.937Z,-1.31
2022-12-03T15:42:52.941Z,-1.35
2022-12-03T15:45:23.064Z,-1.55
2022-12-03T15:47:49.838Z,-1.45
2022-12-03T15:51:02.051Z,-1.48
2022-12-03T15:53:28.848Z,-1.55
2022-12-03T15:55:55.676Z,-1.47
2022-12-03T15:58:23.641Z,-1.43
2022-12-03T16:00:50.600Z,-1.33
2022-12-03T16:03:17.451Z,-1.35
2022-12-03T16:05:44.361Z,-1.38
2022-12-03T16:08:11.282Z,-1.44
2022-12-03T16:10:40.155Z,-1.34
2022-12-03T16:13:09.274Z,-1.38
2022-12-03T16:15:36.401Z,-1.34
2022-12-03T16:18:06.198Z,-1.45
2022-12-03T16:20:33.097Z,-1.50
2022-12-03T16:22:59.986Z,-1.40
2022-12-03T16:25:29.470Z,-1.54
2022-12-03T16:27:56.753Z,-1.41
2022-12-03T16:30:24.851Z,-1.55
2022-12-03T16:32:52.722Z,-1.42
2022-12-03T16:35:22.432Z,-1.51
2022-12-03T16:37:58.830Z,-1.54
2022-12-03T16:40:25.903Z,-1.49
2022-12-03T16:42:52.746Z,-1.44
2022-12-03T16:45:42.606Z,-1.61
2022-12-03T16:48:09.507Z,-1.68
2022-12-03T16:50:37.797Z,-1.57
2022-12-03T16:53:04.684Z,-1.47
2022-12-03T16:55:31.867Z,-1.52
2022-12-03T16:57:59.672Z,-1.55
2022-12-03T17:00:27.456Z,-1.68
2022-12-03T17:02:54.465Z,-1.73
2022-12-03T17:05:27.324Z,-1.81
2022-12-03T17:07:54.589Z,-1.73
2022-12-03T17:10:21.755Z,-1.58
2022-12-03T17:13:12.484Z,-1.57
2022-12-03T17:15:40.091Z,-1.49
2022-12-03T17:18:13.310Z,-1.64
2022-12-03T17:20:45.415Z,-1.53
2022-12-03T17:23:17.938Z,-1.51
2022-12-03T17:25:44.895Z,-1.62
2022-12-03T17:28:11.821Z,-1.68
2022-12-03T17:30:41.805Z,-1.71
2022-12-03T17:33:09.265Z,-1.59
2022-12-03T17:35:38.537Z,-1.60
2022-12-03T17:38:05.474Z,-1.56
2022-12-03T17:40:32.612Z,-1.61
2022-12-03T17:43:05.594Z,-1.68
2022-12-03T17:45:32.893Z,-1.52
2022-12-03T17:48:02.715Z,-1.53
2022-12-03T17:50:29.628Z,-1.45
2022-12-03T17:52:56.346Z,-1.37
2022-12-03T17:55:33.624Z,-1.39
2022-12-03T17:58:08.230Z,-1.43
2022-12-03T18:00:35.008Z,-1.49
2022-12-03T18:03:01.929Z,-1.42
2022-12-03T18:05:28.833Z,-1.37
2022-12-03T18:07:55.687Z,-1.40
2022-12-03T18:10:22.953Z,-1.35
2022-12-03T18:12:49.931Z,-1.35
2022-12-03T18:15:17.338Z,-1.40
2022-12-03T18:17:46.923Z,-1.36
2022-12-03T18:20:14.085Z,-1.30
2022-12-03T18:22:43.505Z,-1.27
2022-12-03T18:25:15.674Z,-1.31
2022-12-03T18:27:42.523Z,-1.27
2022-12-03T18:30:09.867Z,-1.27
2022-12-03T18:32:42.397Z,-1.20
2022-12-03T18:35:09.683Z,-1.27
2022-12-03T18:37:45.222Z,-1.27
2022-12-03T18:40:18.693Z,-1.29
2022-12-03T18:42:45.765Z,-1.27
2022-12-03T18:45:13.319Z,-1.17
2022-12-03T18:47:45.283Z,-1.20
2022-12-03T18:50:12.944Z,-1.27
2022-12-03T18:52:40.078Z,-1.22
2022-12-03T18:55:07.910Z,-1.35
2022-12-03T18:57:34.826Z,-1.30
2022-12-03T19:00:34.116Z,-1.27
2022-12-03T19:03:04.716Z,-1.25
2022-12-03T19:05:35.678Z,-1.20
2022-12-03T19:08:02.987Z,-1.15
2022-12-03T19:14:30.542Z,-1.16
2022-12-03T19:18:57.963Z,-1.11
2022-12-03T19:22:42.704Z,-1.18
2022-12-03T19:25:15.336Z,-1.13
2022-12-03T19:27:43.479Z,-1.08
2022-12-03T19:30:10.920Z,-1.12
2022-12-03T19:32:40.641Z,-1.09
2022-12-03T19:35:11.388Z,-1.08
2022-12-03T19:37:38.288Z,-1.09
2022-12-03T19:40:05.816Z,-1.01
2022-12-03T19:42:41.146Z,-1.03
2022-12-03T19:45:13.464Z,-1.11
2022-12-03T19:48:14.113Z,-1.11
2022-12-03T19:51:35.374Z,-1.05
2022-12-03T19:54:12.547Z,-1.09
2022-12-03T19:57:00.526Z,-1.03
2022-12-03T20:07:04.352Z,-0.95
2022-12-03T20:23:02.231Z,-0.99
2022-12-03T20:25:28.901Z,-0.97
2022-12-03T20:27:55.613Z,-0.94
2022-12-03T20:30:22.373Z,-1.01
2022-12-03T20:32:49.120Z,-0.96
2022-12-03T20:35:15.956Z,-0.94
2022-12-03T20:37:42.614Z,-0.89
2022-12-03T20:40:09.709Z,-0.91
2022-12-03T20:42:36.472Z,-1.00
2022-12-03T20:45:03.458Z,-1.02
2022-12-03T20:47:30.142Z,-0.98
2022-12-03T20:49:56.976Z,-1.01
2022-12-03T20:52:23.966Z,-1.00
2022-12-03T20:54:50.713Z,-0.98
2022-12-03T20:57:17.412Z,-0.96
2022-12-03T20:59:44.092Z,-0.97
2022-12-03T21:02:11.271Z,-0.98
2022-12-03T21:04:38.159Z,-1.00
2022-12-03T21:07:04.873Z,-0.97
2022-12-03T21:09:31.597Z,-0.99
2022-12-03T21:11:58.734Z,-0.92
2022-12-03T21:14:25.462Z,-0.96
2022-12-03T21:17:09.347Z,-0.92
2022-12-03T21:19:36.915Z,-0.85
2022-12-03T21:22:03.973Z,-0.89
2022-12-03T21:24:31.253Z,-0.94
2022-12-03T21:26:58.109Z,-0.93
2022-12-03T21:29:24.825Z,-0.93
2022-12-03T21:31:51.507Z,-0.94
2022-12-03T21:34:18.374Z,-1.00
2022-12-03T23:37:37.527Z,-1.03
2022-12-03T23:44:07.524Z,-1.08
2022-12-03T23:47:43.007Z,-1.05
